createdAt,value
2016-10-03T00:00:19.338Z,13.41
2016-10-03T00:01:01.071Z,13.44
2016-10-03T00:01:42.812Z,13.44
2016-10-03T00:02:24.570Z,13.41
2016-10-03T00:03:06.298Z,13.42
2016-10-03T00:03:48.007Z,13.41
2016-10-03T00:04:29.772Z,13.44
2016-10-03T00:05:11.504Z,13.44
2016-10-03T00:05:53.285Z,13.48
2016-10-03T00:06:34.994Z,13.44
2016-10-03T00:07:16.772Z,13.44
2016-10-03T00:07:58.508Z,13.45
2016-10-03T00:08:40.153Z,13.45
2016-10-03T00:09:21.958Z,13.45
2016-10-03T00:10:03.691Z,13.45
2016-10-03T00:10:45.448Z,13.41
2016-10-03T00:11:27.293Z,13.45
2016-10-03T00:12:09.030Z,13.41
2016-10-03T00:12:50.772Z,13.44
2016-10-03T00:13:32.472Z,13.41
2016-10-03T00:14:14.192Z,13.3
2016-10-03T00:14:55.905Z,13.39
2016-10-03T00:15:37.605Z,13.32
2016-10-03T00:16:19.406Z,13.3
2016-10-03T00:17:01.159Z,13.42
2016-10-03T00:17:42.884Z,13.39
2016-10-03T00:18:24.647Z,13.29
2016-10-03T00:19:06.422Z,13.33
2016-10-03T00:19:48.123Z,13.3
2016-10-03T00:20:29.882Z,13.42
2016-10-03T00:21:11.546Z,13.3
2016-10-03T00:21:53.203Z,13.29
2016-10-03T00:22:34.920Z,13.3
2016-10-03T00:23:16.704Z,13.41
2016-10-03T00:23:58.444Z,13.36
2016-10-03T00:24:40.136Z,13.33
2016-10-03T00:25:21.914Z,13.28
2016-10-03T00:26:03.674Z,13.32
2016-10-03T00:26:45.189Z,13.3
2016-10-03T00:27:26.843Z,13.44
2016-10-03T00:28:08.407Z,13.3
2016-10-03T00:28:50.169Z,13.45
2016-10-03T00:29:31.953Z,13.3
2016-10-03T00:30:13.698Z,13.45
2016-10-03T00:30:55.413Z,13.36
2016-10-03T00:31:37.189Z,13.36
2016-10-03T00:32:18.765Z,13.28
2016-10-03T00:33:00.513Z,13.33
2016-10-03T00:33:42.371Z,13.25
2016-10-03T00:34:24.106Z,13.26
2016-10-03T00:35:05.920Z,13.29
2016-10-03T00:35:47.658Z,13.28
2016-10-03T00:36:29.309Z,13.29
2016-10-03T00:37:11.045Z,13.25
2016-10-03T00:37:52.819Z,13.25
2016-10-03T00:38:34.615Z,13.28
2016-10-03T00:39:16.155Z,13.26
2016-10-03T00:39:57.797Z,13.33
2016-10-03T00:40:39.161Z,13.28
2016-10-03T00:41:20.805Z,13.22
2016-10-03T00:42:02.111Z,13.25
2016-10-03T00:42:43.801Z,13.28
2016-10-03T00:43:25.551Z,13.23
2016-10-03T00:44:07.233Z,13.28
2016-10-03T00:44:48.996Z,13.3
2016-10-03T00:45:30.631Z,13.26
2016-10-03T00:46:12.407Z,13.26
2016-10-03T00:46:54.128Z,13.28
2016-10-03T00:47:35.801Z,13.23
2016-10-03T00:48:17.514Z,13.32
2016-10-03T00:48:59.281Z,13.23
2016-10-03T00:49:41.063Z,13.26
2016-10-03T00:50:22.835Z,13.26
2016-10-03T00:51:04.581Z,13.29
2016-10-03T00:51:46.320Z,13.22
2016-10-03T00:52:28.097Z,13.2
2016-10-03T00:53:09.802Z,13.17
2016-10-03T00:53:51.606Z,13.25
2016-10-03T00:54:33.231Z,13.17
2016-10-03T00:55:14.976Z,13.14
2016-10-03T00:55:56.409Z,13.14
2016-10-03T00:56:37.188Z,13.17
2016-10-03T00:57:17.713Z,13.08
2016-10-03T00:57:58.228Z,13.29
2016-10-03T00:58:38.752Z,13.15
2016-10-03T00:59:19.322Z,13.2
2016-10-03T00:59:59.831Z,13.17
2016-10-03T01:00:40.356Z,13.2
2016-10-03T01:01:20.881Z,13.17
2016-10-03T01:02:01.434Z,13.14
2016-10-03T01:02:41.980Z,13.19
2016-10-03T01:03:22.492Z,13.15
2016-10-03T01:04:03.015Z,13.23
2016-10-03T01:04:43.538Z,13.12
2016-10-03T01:05:24.053Z,13.15
2016-10-03T01:06:04.575Z,13.15
2016-10-03T01:06:45.097Z,13.19
2016-10-03T01:08:23.964Z,13.2
2016-10-03T01:09:04.447Z,13.23
2016-10-03T01:09:44.935Z,13.15
2016-10-03T01:10:25.444Z,13.14
2016-10-03T01:11:05.951Z,13.2
2016-10-03T01:11:46.460Z,13.19
2016-10-03T01:12:26.999Z,13.2
2016-10-03T01:13:07.529Z,13.29
2016-10-03T01:13:48.051Z,13.12
2016-10-03T01:14:28.616Z,13.15
2016-10-03T01:15:09.142Z,13.22
2016-10-03T01:15:49.636Z,13.15
2016-10-03T01:16:30.127Z,13.23
2016-10-03T01:17:10.650Z,13.25
2016-10-03T01:17:51.240Z,13.23
2016-10-03T01:18:31.818Z,13.23
2016-10-03T01:19:12.307Z,13.3
2016-10-03T01:19:52.852Z,13.26
2016-10-03T01:20:33.360Z,13.26
2016-10-03T01:21:13.912Z,13.23
2016-10-03T01:21:54.474Z,13.23
2016-10-03T01:22:35.032Z,13.26
2016-10-03T01:23:15.553Z,13.28
2016-10-03T01:23:56.038Z,13.28
2016-10-03T01:24:36.674Z,13.23
2016-10-03T01:25:17.220Z,13.26
2016-10-03T01:25:57.788Z,13.28
2016-10-03T01:26:38.363Z,13.25
2016-10-03T01:27:18.889Z,13.23
2016-10-03T01:27:59.409Z,13.26
2016-10-03T01:28:39.936Z,13.25
2016-10-03T01:29:20.421Z,13.23
2016-10-03T01:30:01.003Z,13.25
2016-10-03T01:30:41.529Z,13.25
2016-10-03T01:31:22.011Z,13.25
2016-10-03T01:32:02.510Z,13.2
2016-10-03T01:32:43.066Z,13.3
2016-10-03T01:33:23.576Z,13.2
2016-10-03T01:34:04.158Z,13.22
2016-10-03T01:34:44.625Z,13.17
2016-10-03T01:35:25.637Z,13.28
2016-10-03T01:36:06.125Z,13.23
2016-10-03T01:36:46.714Z,13.26
2016-10-03T01:37:27.211Z,13.25
2016-10-03T01:38:07.729Z,13.2
2016-10-03T01:38:48.218Z,13.25
2016-10-03T01:39:28.808Z,13.2
2016-10-03T01:40:09.377Z,13.19
2016-10-03T01:40:49.896Z,13.23
2016-10-03T01:41:30.441Z,13.26
2016-10-03T01:42:10.996Z,13.26
2016-10-03T01:42:51.568Z,13.19
2016-10-03T01:43:32.173Z,13.19
2016-10-03T01:44:12.715Z,13.2
2016-10-03T01:44:53.289Z,13.15
2016-10-03T01:45:33.859Z,13.19
2016-10-03T01:46:14.435Z,13.22
2016-10-03T01:46:54.930Z,13.17
2016-10-03T01:47:35.487Z,13.2
2016-10-03T01:48:16.006Z,13.26
2016-10-03T01:48:56.516Z,13.2
2016-10-03T01:49:37.020Z,13.2
2016-10-03T01:50:17.558Z,13.2
2016-10-03T01:52:16.701Z,13.15
2016-10-03T01:52:57.165Z,13.22
2016-10-03T01:53:37.683Z,13.17
2016-10-03T01:54:18.211Z,13.2
2016-10-03T01:54:58.726Z,13.19
2016-10-03T01:55:39.291Z,13.22
2016-10-03T01:56:19.839Z,13.22
2016-10-03T01:57:00.346Z,13.19
2016-10-03T01:57:40.888Z,13.17
2016-10-03T01:58:21.396Z,13.25
2016-10-03T01:59:01.894Z,13.17
2016-10-03T01:59:42.457Z,13.23
2016-10-03T02:00:22.944Z,13.17
2016-10-03T02:01:03.471Z,13.19
2016-10-03T02:01:43.975Z,13.17
2016-10-03T02:02:24.525Z,13.17
2016-10-03T02:03:05.039Z,13.17
2016-10-03T02:03:45.602Z,13.17
2016-10-03T02:04:26.094Z,13.19
2016-10-03T02:05:06.678Z,13.22
2016-10-03T02:05:47.217Z,13.23
2016-10-03T02:06:27.769Z,13.17
2016-10-03T02:07:08.322Z,13.25
2016-10-03T02:07:48.869Z,13.14
2016-10-03T02:08:29.401Z,13.15
2016-10-03T02:09:09.969Z,13.23
2016-10-03T02:09:50.556Z,13.17
2016-10-03T02:10:31.075Z,13.22
2016-10-03T02:11:11.673Z,13.17
2016-10-03T02:11:52.188Z,13.29
2016-10-03T02:12:32.729Z,13.2
2016-10-03T02:13:13.293Z,13.17
2016-10-03T02:13:53.836Z,13.1
2016-10-03T02:14:34.431Z,13.07
2016-10-03T02:15:14.898Z,13.23
2016-10-03T02:15:55.456Z,13.14
2016-10-03T02:16:35.975Z,13.22
2016-10-03T02:17:16.557Z,13.17
2016-10-03T02:17:57.103Z,13.25
2016-10-03T02:18:37.618Z,13.23
2016-10-03T02:19:18.133Z,13.22
2016-10-03T02:19:58.683Z,13.2
2016-10-03T02:20:39.190Z,13.15
2016-10-03T02:21:19.778Z,13.15
2016-10-03T02:22:00.316Z,13.15
2016-10-03T02:22:40.860Z,13.17
2016-10-03T02:23:21.369Z,13.17
2016-10-03T02:24:01.947Z,13.17
2016-10-03T02:24:42.438Z,13.2
2016-10-03T02:25:22.955Z,13.2
2016-10-03T02:26:03.491Z,13.12
2016-10-03T02:26:44.013Z,13.17
2016-10-03T02:27:26.508Z,13.19
2016-10-03T02:28:07.088Z,13.15
2016-10-03T02:28:47.529Z,13.17
2016-10-03T02:29:28.080Z,13.19
2016-10-03T02:30:08.595Z,13.11
2016-10-03T02:30:49.197Z,13.14
2016-10-03T02:31:29.708Z,13.12
2016-10-03T02:32:10.229Z,13.17
2016-10-03T02:32:50.771Z,13.1
2016-10-03T02:33:31.322Z,13.1
2016-10-03T02:34:11.837Z,13.15
2016-10-03T02:34:52.386Z,13.19
2016-10-03T02:35:32.956Z,13.19
2016-10-03T02:36:13.397Z,13.17
2016-10-03T02:36:53.908Z,13.17
2016-10-03T02:37:34.461Z,13.17
2016-10-03T02:38:14.955Z,13.17
2016-10-03T02:38:55.511Z,13.17
2016-10-03T02:39:35.994Z,13.15
2016-10-03T02:40:16.543Z,13.2
2016-10-03T02:40:57.107Z,13.12
2016-10-03T02:41:37.688Z,13.14
2016-10-03T02:42:18.213Z,13.2
2016-10-03T02:42:58.741Z,13.14
2016-10-03T02:43:39.256Z,13.14
2016-10-03T02:44:19.772Z,13.14
2016-10-03T02:45:00.315Z,13.11
2016-10-03T02:45:40.932Z,13.15
2016-10-03T02:46:21.477Z,13.15
2016-10-03T02:47:02.069Z,13.08
2016-10-03T02:47:42.524Z,13.12
2016-10-03T02:48:23.075Z,13.12
2016-10-03T02:49:03.599Z,13.17
2016-10-03T02:49:44.149Z,13.07
2016-10-03T02:50:24.708Z,13.08
2016-10-03T02:51:05.221Z,13.1
2016-10-03T02:51:45.728Z,13.07
2016-10-03T02:52:26.251Z,13.12
2016-10-03T02:53:06.805Z,13.12
2016-10-03T02:53:47.319Z,13.12
2016-10-03T02:54:27.862Z,13.1
2016-10-03T02:55:08.365Z,13.07
2016-10-03T02:55:48.860Z,13.1
2016-10-03T02:56:29.477Z,13.11
2016-10-03T02:57:09.986Z,13.04
2016-10-03T02:57:50.520Z,13.1
2016-10-03T02:58:31.086Z,13.12
2016-10-03T02:59:11.603Z,13.1
2016-10-03T02:59:52.181Z,13.14
2016-10-03T03:00:32.766Z,13.08
2016-10-03T03:01:13.273Z,13.1
2016-10-03T03:01:53.781Z,13.12
2016-10-03T03:02:34.306Z,13.08
2016-10-03T03:03:14.839Z,13.08
2016-10-03T03:03:55.364Z,13.11
2016-10-03T03:04:35.927Z,13.12
2016-10-03T03:05:16.427Z,13.12
2016-10-03T03:05:56.961Z,13.08
2016-10-03T03:06:37.497Z,13.12
2016-10-03T03:07:18.044Z,13.12
2016-10-03T03:07:58.562Z,13.08
2016-10-03T03:08:39.083Z,13.07
2016-10-03T03:09:19.656Z,13.19
2016-10-03T03:10:00.170Z,13.07
2016-10-03T03:10:40.711Z,13.12
2016-10-03T03:11:21.254Z,13.17
2016-10-03T03:12:01.807Z,13.07
2016-10-03T03:12:42.298Z,13.08
2016-10-03T03:13:22.834Z,13.08
2016-10-03T03:14:03.396Z,13.11
2016-10-03T03:14:43.953Z,13.12
2016-10-03T03:15:24.486Z,13.08
2016-10-03T03:16:05.019Z,13.15
2016-10-03T03:16:45.538Z,13.11
2016-10-03T03:17:26.061Z,13.12
2016-10-03T03:18:06.604Z,13.11
2016-10-03T03:18:47.123Z,13.08
2016-10-03T03:19:27.690Z,13.12
2016-10-03T03:20:08.206Z,13.05
2016-10-03T03:20:48.765Z,13.08
2016-10-03T03:21:29.301Z,13.1
2016-10-03T03:22:09.847Z,13.12
2016-10-03T03:22:50.394Z,13.1
2016-10-03T03:23:30.891Z,13.11
2016-10-03T03:24:11.389Z,13.1
2016-10-03T03:24:51.910Z,13.11
2016-10-03T03:25:32.416Z,13.11
2016-10-03T03:26:12.950Z,13.1
2016-10-03T03:26:53.467Z,13.12
2016-10-03T03:27:33.984Z,13.1
2016-10-03T03:28:14.518Z,13.14
2016-10-03T03:28:55.039Z,13.08
2016-10-03T03:29:35.576Z,13.12
2016-10-03T03:30:16.147Z,13.08
2016-10-03T03:30:56.675Z,13.11
2016-10-03T03:31:37.145Z,13.14
2016-10-03T03:32:17.665Z,13.12
2016-10-03T03:32:58.167Z,13.1
2016-10-03T03:33:38.716Z,13.03
2016-10-03T03:34:19.252Z,13.05
2016-10-03T03:34:59.712Z,13.12
2016-10-03T03:35:40.356Z,13.11
2016-10-03T03:36:20.937Z,13.07
2016-10-03T03:37:01.503Z,13.11
2016-10-03T03:37:42.041Z,13.08
2016-10-03T03:38:22.592Z,13.01
2016-10-03T03:39:03.139Z,13.04
2016-10-03T03:39:43.660Z,13.05
2016-10-03T03:40:24.268Z,13.04
2016-10-03T03:41:04.830Z,13.07
2016-10-03T03:41:45.311Z,13.11
2016-10-03T03:42:25.807Z,13.08
2016-10-03T03:43:06.311Z,13.08
2016-10-03T03:43:46.865Z,13.1
2016-10-03T03:44:27.407Z,13
2016-10-03T03:45:07.883Z,13.04
2016-10-03T03:45:48.435Z,13.07
2016-10-03T03:46:28.911Z,13.07
2016-10-03T03:47:09.429Z,13.1
2016-10-03T03:47:49.970Z,13.01
2016-10-03T03:48:30.526Z,13.05
2016-10-03T03:49:11.055Z,13.11
2016-10-03T03:49:51.568Z,13.07
2016-10-03T03:50:32.079Z,13.12
2016-10-03T03:51:12.621Z,13.03
2016-10-03T03:51:53.154Z,13.1
2016-10-03T03:52:33.661Z,13.11
2016-10-03T03:53:14.169Z,13.11
2016-10-03T03:53:54.707Z,13.04
2016-10-03T03:54:35.221Z,13.04
2016-10-03T03:55:15.734Z,13.11
2016-10-03T03:55:56.297Z,13.11
2016-10-03T03:56:36.829Z,12.97
2016-10-03T03:57:17.317Z,13.04
2016-10-03T03:57:57.840Z,13.11
2016-10-03T03:58:38.361Z,13.01
2016-10-03T03:59:18.861Z,13.04
2016-10-03T03:59:59.411Z,13.04
2016-10-03T04:00:39.996Z,13.01
2016-10-03T04:01:20.487Z,12.97
2016-10-03T04:02:00.969Z,13.04
2016-10-03T04:02:41.516Z,12.96
2016-10-03T04:03:22.028Z,13.04
2016-10-03T04:04:02.584Z,12.96
2016-10-03T04:04:43.163Z,13.04
2016-10-03T04:05:23.713Z,13.04
2016-10-03T04:06:04.248Z,12.96
2016-10-03T04:06:44.775Z,12.97
2016-10-03T04:07:25.315Z,12.93
2016-10-03T04:08:05.839Z,13.07
2016-10-03T04:08:46.371Z,12.97
2016-10-03T04:09:26.906Z,13.04
2016-10-03T04:10:07.395Z,12.96
2016-10-03T04:10:47.914Z,13
2016-10-03T04:11:28.439Z,12.97
2016-10-03T04:12:08.955Z,12.95
2016-10-03T04:12:49.498Z,12.96
2016-10-03T04:13:30.001Z,12.93
2016-10-03T04:14:10.593Z,12.96
2016-10-03T04:14:51.087Z,12.92
2016-10-03T04:15:31.605Z,12.96
2016-10-03T04:16:12.108Z,12.96
2016-10-03T04:16:52.638Z,12.92
2016-10-03T04:17:33.153Z,12.95
2016-10-03T04:18:13.786Z,12.96
2016-10-03T04:18:54.308Z,12.93
2016-10-03T04:19:34.871Z,12.93
2016-10-03T04:20:15.400Z,12.97
2016-10-03T04:20:55.973Z,12.95
2016-10-03T04:21:36.487Z,12.97
2016-10-03T04:22:17.007Z,12.97
2016-10-03T04:22:57.630Z,12.97
2016-10-03T04:23:38.168Z,12.96
2016-10-03T04:24:18.634Z,12.97
2016-10-03T04:24:59.148Z,13.01
2016-10-03T04:25:39.670Z,12.96
2016-10-03T04:26:20.189Z,12.96
2016-10-03T04:27:00.733Z,12.93
2016-10-03T04:27:41.251Z,12.96
2016-10-03T04:28:21.762Z,12.96
2016-10-03T04:29:02.299Z,12.95
2016-10-03T04:29:42.803Z,12.93
2016-10-03T04:30:23.324Z,12.93
2016-10-03T04:31:03.823Z,12.96
2016-10-03T04:31:44.390Z,13.04
2016-10-03T04:32:24.864Z,12.93
2016-10-03T04:33:05.384Z,12.93
2016-10-03T04:33:45.920Z,12.95
2016-10-03T04:34:26.438Z,12.96
2016-10-03T04:35:06.970Z,12.95
2016-10-03T04:35:47.490Z,12.97
2016-10-03T04:36:28.011Z,12.93
2016-10-03T04:37:08.536Z,12.96
2016-10-03T04:37:49.060Z,12.97
2016-10-03T04:38:29.531Z,12.95
2016-10-03T04:39:10.038Z,12.95
2016-10-03T04:39:50.558Z,12.95
2016-10-03T04:40:31.094Z,12.93
2016-10-03T04:41:11.610Z,12.92
2016-10-03T04:41:52.151Z,12.95
2016-10-03T04:42:32.668Z,12.92
2016-10-03T04:43:13.191Z,12.92
2016-10-03T04:43:53.712Z,12.95
2016-10-03T04:44:34.217Z,12.96
2016-10-03T04:45:14.748Z,12.96
2016-10-03T04:45:55.323Z,12.96
2016-10-03T04:46:35.851Z,12.93
2016-10-03T04:47:16.377Z,12.93
2016-10-03T04:47:56.915Z,12.95
2016-10-03T04:48:37.406Z,12.95
2016-10-03T04:49:17.947Z,12.97
2016-10-03T04:49:58.507Z,12.93
2016-10-03T04:50:39.045Z,12.93
2016-10-03T04:51:19.529Z,12.96
2016-10-03T04:52:00.053Z,12.92
2016-10-03T04:52:40.525Z,12.89
2016-10-03T04:53:21.047Z,12.93
2016-10-03T04:54:01.570Z,13.04
2016-10-03T04:54:42.174Z,12.97
2016-10-03T04:55:22.688Z,13
2016-10-03T04:56:03.191Z,12.93
2016-10-03T04:56:43.676Z,12.93
2016-10-03T04:57:24.299Z,13
2016-10-03T04:58:04.766Z,12.92
2016-10-03T04:58:45.264Z,12.93
2016-10-03T04:59:25.767Z,13
2016-10-03T05:00:06.314Z,12.96
2016-10-03T05:00:46.867Z,12.95
2016-10-03T05:01:27.390Z,12.96
2016-10-03T05:02:07.939Z,12.92
2016-10-03T05:02:48.469Z,12.92
2016-10-03T05:03:28.979Z,12.95
2016-10-03T05:04:09.525Z,12.93
2016-10-03T05:04:50.032Z,12.95
2016-10-03T05:05:30.552Z,13
2016-10-03T05:06:11.064Z,13.01
2016-10-03T05:06:51.553Z,12.92
2016-10-03T05:07:32.068Z,12.96
2016-10-03T05:08:12.578Z,12.95
2016-10-03T05:08:53.096Z,12.97
2016-10-03T05:09:33.633Z,12.97
2016-10-03T05:10:14.145Z,12.97
2016-10-03T05:10:54.658Z,13.01
2016-10-03T05:11:35.168Z,12.89
2016-10-03T05:12:15.700Z,12.96
2016-10-03T05:12:56.218Z,12.97
2016-10-03T05:13:36.723Z,12.93
2016-10-03T05:14:17.214Z,12.96
2016-10-03T05:14:57.720Z,12.93
2016-10-03T05:15:38.269Z,13
2016-10-03T05:16:18.767Z,12.93
2016-10-03T05:16:59.306Z,13
2016-10-03T05:17:40.389Z,13.03
2016-10-03T05:18:21.042Z,13
2016-10-03T05:19:01.561Z,12.96
2016-10-03T05:19:42.176Z,12.93
2016-10-03T05:20:22.708Z,12.92
2016-10-03T05:21:03.232Z,12.83
2016-10-03T05:21:43.913Z,12.9
2016-10-03T05:22:24.922Z,12.9
2016-10-03T05:23:05.731Z,12.86
2016-10-03T05:23:46.683Z,12.92
2016-10-03T05:24:27.318Z,12.78
2016-10-03T05:25:07.980Z,12.83
2016-10-03T05:25:49.096Z,12.86
2016-10-03T05:26:29.704Z,12.86
2016-10-03T05:27:10.234Z,12.85
2016-10-03T05:27:50.745Z,12.83
2016-10-03T05:28:31.281Z,12.83
2016-10-03T05:29:11.820Z,12.82
2016-10-03T05:29:52.277Z,12.86
2016-10-03T05:30:32.788Z,12.87
2016-10-03T05:31:13.300Z,12.79
2016-10-03T05:31:53.823Z,12.85
2016-10-03T05:32:34.338Z,12.86
2016-10-03T05:33:14.845Z,12.85
2016-10-03T05:33:55.372Z,12.87
2016-10-03T05:34:35.866Z,12.78
2016-10-03T05:35:16.366Z,12.83
2016-10-03T05:35:56.868Z,12.68
2016-10-03T05:36:37.393Z,12.85
2016-10-03T05:37:17.896Z,12.7
2016-10-03T05:37:58.420Z,12.7
2016-10-03T05:38:38.903Z,12.68
2016-10-03T05:39:19.421Z,12.7
2016-10-03T05:39:59.895Z,12.67
2016-10-03T05:40:40.421Z,12.71
2016-10-03T05:41:20.901Z,12.67
2016-10-03T05:42:01.463Z,12.68
2016-10-03T05:42:41.976Z,12.67
2016-10-03T05:43:22.461Z,12.62
2016-10-03T05:44:02.973Z,12.62
2016-10-03T05:44:43.505Z,12.62
2016-10-03T05:45:23.978Z,12.65
2016-10-03T05:46:04.519Z,12.59
2016-10-03T05:46:44.993Z,12.64
2016-10-03T05:47:25.501Z,12.6
2016-10-03T05:48:06.010Z,12.6
2016-10-03T05:48:46.519Z,12.6
2016-10-03T05:49:27.001Z,12.62
2016-10-03T05:50:07.535Z,12.59
2016-10-03T05:50:48.059Z,12.57
2016-10-03T05:51:28.616Z,12.64
2016-10-03T05:52:09.133Z,12.59
2016-10-03T05:52:49.669Z,12.64
2016-10-03T05:53:30.168Z,12.6
2016-10-03T05:54:10.694Z,12.64
2016-10-03T05:54:51.213Z,12.65
2016-10-03T05:55:31.741Z,12.56
2016-10-03T05:56:12.269Z,12.6
2016-10-03T05:56:52.792Z,12.59
2016-10-03T05:57:33.335Z,12.64
2016-10-03T05:58:13.832Z,12.52
2016-10-03T05:58:54.348Z,12.6
2016-10-03T05:59:34.823Z,12.62
2016-10-03T06:00:15.374Z,12.6
2016-10-03T06:00:55.845Z,12.62
2016-10-03T06:01:36.378Z,12.56
2016-10-03T06:02:16.908Z,12.57
2016-10-03T06:02:57.416Z,12.64
2016-10-03T06:03:37.918Z,12.64
2016-10-03T06:04:18.429Z,12.65
2016-10-03T06:04:58.961Z,12.65
2016-10-03T06:05:39.489Z,12.59
2016-10-03T06:06:19.995Z,12.64
2016-10-03T06:07:00.505Z,12.68
2016-10-03T06:09:19.842Z,12.64
2016-10-03T06:10:00.425Z,12.64
2016-10-03T06:10:40.945Z,12.67
2016-10-03T06:11:21.496Z,12.67
2016-10-03T06:12:01.982Z,12.65
2016-10-03T06:12:42.492Z,12.65
2016-10-03T06:13:23.003Z,12.67
2016-10-03T06:14:03.563Z,12.68
2016-10-03T06:14:44.085Z,12.68
2016-10-03T06:15:24.610Z,12.68
2016-10-03T06:16:05.161Z,12.7
2016-10-03T06:16:45.607Z,12.68
2016-10-03T06:17:26.136Z,12.71
2016-10-03T06:18:06.596Z,12.72
2016-10-03T06:18:47.099Z,12.68
2016-10-03T06:19:27.597Z,12.7
2016-10-03T06:20:08.066Z,12.72
2016-10-03T06:20:48.580Z,12.71
2016-10-03T06:21:29.098Z,12.74
2016-10-03T06:22:09.582Z,12.64
2016-10-03T06:22:50.078Z,12.67
2016-10-03T06:23:30.573Z,12.71
2016-10-03T06:24:11.064Z,12.7
2016-10-03T06:24:51.714Z,12.71
2016-10-03T06:25:32.271Z,12.77
2016-10-03T06:26:12.800Z,12.67
2016-10-03T06:26:53.278Z,12.67
2016-10-03T06:27:33.801Z,12.67
2016-10-03T06:28:14.311Z,12.71
2016-10-03T06:28:54.801Z,12.7
2016-10-03T06:29:35.297Z,12.72
2016-10-03T06:30:15.902Z,12.65
2016-10-03T06:30:56.519Z,12.64
2016-10-03T06:31:37.139Z,12.57
2016-10-03T06:32:17.619Z,12.62
2016-10-03T06:32:58.140Z,12.56
2016-10-03T06:33:38.633Z,12.53
2016-10-03T06:34:19.151Z,12.53
2016-10-03T06:34:59.859Z,12.45
2016-10-03T06:35:40.358Z,12.45
2016-10-03T06:36:21.096Z,12.47
2016-10-03T06:37:02.341Z,12.42
2016-10-03T06:37:42.772Z,12.39
2016-10-03T06:38:23.299Z,12.46
2016-10-03T06:39:03.795Z,12.42
2016-10-03T06:39:44.273Z,12.41
2016-10-03T06:40:24.807Z,12.39
2016-10-03T06:41:05.341Z,12.39
2016-10-03T06:41:45.901Z,12.37
2016-10-03T06:42:27.509Z,12.35
2016-10-03T06:43:08.035Z,12.37
2016-10-03T06:43:48.710Z,12.46
2016-10-03T06:44:30.121Z,12.39
2016-10-03T06:45:10.794Z,12.37
2016-10-03T06:45:51.251Z,12.38
2016-10-03T06:46:31.821Z,12.37
2016-10-03T06:47:12.418Z,12.35
2016-10-03T06:47:52.918Z,12.29
2016-10-03T06:48:33.432Z,12.35
2016-10-03T06:49:13.957Z,12.32
2016-10-03T06:49:54.474Z,12.35
2016-10-03T06:50:34.973Z,12.35
2016-10-03T06:51:15.490Z,12.38
2016-10-03T06:51:55.987Z,12.29
2016-10-03T06:52:36.538Z,12.37
2016-10-03T06:53:17.052Z,12.37
2016-10-03T06:53:57.579Z,12.37
2016-10-03T06:54:38.170Z,12.34
2016-10-03T06:55:18.703Z,12.37
2016-10-03T06:55:59.289Z,12.37
2016-10-03T06:56:39.822Z,12.35
2016-10-03T06:57:20.351Z,12.37
2016-10-03T06:58:00.872Z,12.38
2016-10-03T06:58:41.371Z,12.37
2016-10-03T06:59:21.882Z,12.35
2016-10-03T07:00:02.381Z,12.38
2016-10-03T07:00:42.941Z,12.35
2016-10-03T07:01:23.497Z,12.38
2016-10-03T07:02:04.026Z,12.35
2016-10-03T07:02:44.572Z,12.35
2016-10-03T07:03:25.073Z,12.39
2016-10-03T07:04:05.653Z,12.39
2016-10-03T07:04:46.167Z,12.37
2016-10-03T07:05:26.714Z,12.41
2016-10-03T07:06:07.246Z,12.41
2016-10-03T07:06:47.744Z,12.5
2016-10-03T07:07:28.250Z,12.46
2016-10-03T07:08:08.824Z,12.47
2016-10-03T07:08:49.328Z,12.49
2016-10-03T07:09:30.042Z,12.52
2016-10-03T07:10:10.508Z,12.53
2016-10-03T07:10:51.126Z,12.47
2016-10-03T07:11:31.644Z,12.47
2016-10-03T07:12:12.227Z,12.54
2016-10-03T07:12:52.757Z,12.56
2016-10-03T07:13:33.479Z,12.54
2016-10-03T07:14:16.732Z,12.57
2016-10-03T07:14:57.307Z,12.54
2016-10-03T07:15:37.935Z,12.52
2016-10-03T07:16:18.569Z,12.54
2016-10-03T07:16:59.063Z,12.57
2016-10-03T07:17:39.586Z,12.53
2016-10-03T07:18:20.380Z,12.59
2016-10-03T07:19:00.918Z,12.54
2016-10-03T07:19:41.368Z,12.59
2016-10-03T07:20:22.821Z,12.59
2016-10-03T07:21:03.621Z,12.53
2016-10-03T07:21:44.202Z,12.62
2016-10-03T07:22:24.803Z,12.57
2016-10-03T07:23:05.106Z,12.54
2016-10-03T07:23:45.693Z,12.57
2016-10-03T07:24:26.195Z,12.62
2016-10-03T07:25:06.688Z,12.6
2016-10-03T07:25:47.234Z,12.54
2016-10-03T07:26:27.841Z,12.56
2016-10-03T07:27:08.351Z,12.6
2016-10-03T07:27:48.924Z,12.54
2016-10-03T07:28:29.888Z,12.57
2016-10-03T07:29:10.462Z,12.6
2016-10-03T07:29:51.190Z,12.64
2016-10-03T07:30:31.844Z,12.62
2016-10-03T07:31:12.313Z,12.64
2016-10-03T07:31:52.905Z,12.59
2016-10-03T07:32:33.376Z,12.59
2016-10-03T07:33:13.908Z,12.6
2016-10-03T07:33:54.422Z,12.6
2016-10-03T07:34:34.962Z,12.62
2016-10-03T07:35:15.535Z,12.64
2016-10-03T07:35:56.086Z,12.65
2016-10-03T07:36:36.600Z,12.65
2016-10-03T07:37:17.132Z,12.6
2016-10-03T07:37:57.673Z,12.64
2016-10-03T07:38:38.200Z,12.56
2016-10-03T07:39:18.722Z,12.64
2016-10-03T07:39:59.214Z,12.64
2016-10-03T07:40:39.757Z,12.67
2016-10-03T07:41:20.291Z,12.7
2016-10-03T07:42:00.930Z,12.71
2016-10-03T07:42:41.347Z,12.7
2016-10-03T07:43:21.846Z,12.71
2016-10-03T07:44:02.458Z,12.7
2016-10-03T07:44:43.036Z,12.7
2016-10-03T07:45:23.655Z,12.74
2016-10-03T07:46:04.156Z,12.71
2016-10-03T07:46:44.693Z,12.67
2016-10-03T07:47:25.293Z,12.67
2016-10-03T07:48:06.062Z,12.68
2016-10-03T07:48:46.540Z,12.7
2016-10-03T07:49:27.078Z,12.78
2016-10-03T07:50:07.737Z,12.78
2016-10-03T07:50:48.496Z,12.89
2016-10-03T07:51:28.953Z,12.85
2016-10-03T07:52:10.675Z,12.83
2016-10-03T07:52:51.276Z,12.82
2016-10-03T07:53:31.968Z,12.89
2016-10-03T07:54:12.506Z,12.87
2016-10-03T07:54:52.962Z,12.85
2016-10-03T07:55:33.538Z,12.82
2016-10-03T07:56:14.067Z,12.86
2016-10-03T07:56:54.602Z,12.82
2016-10-03T07:57:35.281Z,12.92
2016-10-03T07:58:15.801Z,12.78
2016-10-03T07:58:56.297Z,12.89
2016-10-03T07:59:36.812Z,12.97
2016-10-03T08:00:17.351Z,12.89
2016-10-03T08:00:58.012Z,12.93
2016-10-03T08:01:38.629Z,12.82
2016-10-03T08:02:19.153Z,12.89
2016-10-03T08:02:59.683Z,12.82
2016-10-03T08:03:40.228Z,12.89
2016-10-03T08:04:20.730Z,12.89
2016-10-03T08:05:01.226Z,12.89
2016-10-03T08:05:41.751Z,12.97
2016-10-03T08:06:22.258Z,12.86
2016-10-03T08:07:02.751Z,12.96
2016-10-03T08:07:43.276Z,12.96
2016-10-03T08:08:23.742Z,12.97
2016-10-03T08:09:04.225Z,12.97
2016-10-03T08:09:44.762Z,12.93
2016-10-03T08:10:25.300Z,12.95
2016-10-03T08:11:05.836Z,12.9
2016-10-03T08:11:46.304Z,13
2016-10-03T08:12:26.781Z,12.96
2016-10-03T08:13:07.282Z,12.97
2016-10-03T08:13:47.762Z,12.96
2016-10-03T08:14:28.429Z,12.93
2016-10-03T08:15:08.767Z,12.96
2016-10-03T08:15:49.298Z,13
2016-10-03T08:16:29.804Z,13.04
2016-10-03T08:17:10.316Z,13.08
2016-10-03T08:17:50.874Z,13.01
2016-10-03T08:18:32.515Z,13.07
2016-10-03T08:19:13.084Z,13.03
2016-10-03T08:19:53.618Z,13
2016-10-03T08:20:34.135Z,13.05
2016-10-03T08:21:14.655Z,12.93
2016-10-03T08:21:55.174Z,13.05
2016-10-03T08:22:35.683Z,12.97
2016-10-03T08:23:16.321Z,12.97
2016-10-03T08:23:56.825Z,13.05
2016-10-03T08:24:37.343Z,13.07
2016-10-03T08:25:17.840Z,13.14
2016-10-03T08:25:58.491Z,13.12
2016-10-03T08:26:39.212Z,13.17
2016-10-03T08:27:19.700Z,13.14
2016-10-03T08:28:00.192Z,13.23
2016-10-03T08:28:40.722Z,13.2
2016-10-03T08:29:21.260Z,13.1
2016-10-03T08:30:01.810Z,13.17
2016-10-03T08:30:42.324Z,13.15
2016-10-03T08:31:24.750Z,13.17
2016-10-03T08:32:05.498Z,13.19
2016-10-03T08:32:45.997Z,13.12
2016-10-03T08:33:26.559Z,13.17
2016-10-03T08:34:07.250Z,13.1
2016-10-03T08:34:47.746Z,13.2
2016-10-03T08:35:28.238Z,13.17
2016-10-03T08:36:08.749Z,13.22
2016-10-03T08:36:49.281Z,13.19
2016-10-03T08:37:29.784Z,13.26
2016-10-03T08:38:10.302Z,13.2
2016-10-03T08:38:50.849Z,13.25
2016-10-03T08:39:31.511Z,13.19
2016-10-03T08:40:12.170Z,13.22
2016-10-03T08:40:52.683Z,13.26
2016-10-03T08:41:33.267Z,13.26
2016-10-03T08:42:14.239Z,13.25
2016-10-03T08:42:54.801Z,13.23
2016-10-03T08:43:35.319Z,13.28
2016-10-03T08:44:15.980Z,13.28
2016-10-03T08:44:56.526Z,13.25
2016-10-03T08:45:37.055Z,13.25
2016-10-03T08:46:17.830Z,13.28
2016-10-03T08:46:58.482Z,13.29
2016-10-03T08:47:39.204Z,13.26
2016-10-03T08:48:19.681Z,13.22
2016-10-03T08:49:00.201Z,13.26
2016-10-03T08:49:40.727Z,13.25
2016-10-03T08:50:21.262Z,13.28